createdAt,value
2018-06-18T00:02:17.755Z,3.60
2018-06-18T00:04:47.196Z,4.17
2018-06-18T00:07:16.729Z,4.10
2018-06-18T00:09:46.288Z,4.55
2018-06-18T00:12:15.702Z,4.00
2018-06-18T00:14:45.106Z,4.50
2018-06-18T00:17:14.605Z,3.67
2018-06-18T00:19:44.060Z,3.67
2018-06-18T00:22:17.894Z,5.08
2018-06-18T00:24:48.926Z,3.58
2018-06-18T00:27:18.381Z,3.80
2018-06-18T00:29:47.852Z,3.42
2018-06-18T00:32:17.466Z,4.28
2018-06-18T00:34:46.903Z,3.75
2018-06-18T00:37:16.313Z,4.30
2018-06-18T00:39:45.692Z,3.83
2018-06-18T00:42:15.158Z,3.67
2018-06-18T00:44:44.637Z,3.67
2018-06-18T00:47:14.053Z,3.22
2018-06-18T00:49:43.504Z,4.15
2018-06-18T00:52:12.730Z,3.27
2018-06-18T00:54:42.161Z,3.08
2018-06-18T00:57:11.588Z,4.05
2018-06-18T00:59:41.174Z,3.83
2018-06-18T01:02:10.649Z,3.33
2018-06-18T01:04:40.070Z,4.08
2018-06-18T01:07:09.579Z,3.77
2018-06-18T01:09:39.133Z,3.50
2018-06-18T01:12:08.620Z,3.00
2018-06-18T01:14:38.228Z,3.75
2018-06-18T01:17:07.755Z,3.62
2018-06-18T01:19:36.905Z,4.15
2018-06-18T01:22:06.952Z,3.05
2018-06-18T01:24:52.206Z,2.83
2018-06-18T01:27:21.838Z,3.33
2018-06-18T01:29:51.325Z,3.77
2018-06-18T01:32:20.754Z,3.10
2018-06-18T01:34:50.162Z,3.60
2018-06-18T01:37:19.639Z,3.98
2018-06-18T01:39:49.180Z,4.47
2018-06-18T01:42:18.600Z,3.70
2018-06-18T01:44:48.018Z,3.27
2018-06-18T01:47:17.527Z,3.77
2018-06-18T01:49:46.958Z,3.47
2018-06-18T01:52:16.389Z,4.22
2018-06-18T01:54:45.944Z,3.70
2018-06-18T01:57:15.387Z,4.03
2018-06-18T01:59:44.817Z,3.90
2018-06-18T02:02:14.239Z,4.05
2018-06-18T02:04:43.744Z,3.55
2018-06-18T02:07:13.272Z,3.40
2018-06-18T02:09:42.719Z,4.33
2018-06-18T02:12:12.134Z,3.25
2018-06-18T02:14:41.631Z,2.98
2018-06-18T02:17:11.101Z,2.60
2018-06-18T02:19:40.611Z,3.47
2018-06-18T02:22:10.176Z,3.85
2018-06-18T02:24:39.635Z,3.40
2018-06-18T02:27:14.159Z,3.42
2018-06-18T02:29:48.795Z,4.45
2018-06-18T02:32:23.494Z,4.65
2018-06-18T02:34:58.170Z,3.37
2018-06-18T02:37:32.774Z,3.22
2018-06-18T02:40:07.336Z,3.37
2018-06-18T02:42:37.810Z,3.50
2018-06-18T02:45:07.337Z,4.67
2018-06-18T02:47:36.828Z,3.30
2018-06-18T02:50:06.289Z,4.15
2018-06-18T02:52:35.817Z,3.62
2018-06-18T02:55:05.608Z,4.12
2018-06-18T02:57:35.136Z,2.62
2018-06-18T03:00:04.819Z,3.42
2018-06-18T03:02:34.320Z,3.62
2018-06-18T03:05:03.806Z,2.98
2018-06-18T03:07:33.254Z,3.37
2018-06-18T03:10:02.678Z,3.40
2018-06-18T03:12:32.181Z,3.85
2018-06-18T03:15:01.632Z,3.98
2018-06-18T03:17:31.110Z,3.27
2018-06-18T03:20:05.807Z,3.47
2018-06-18T03:22:40.234Z,3.35
2018-06-18T03:25:15.011Z,3.62
2018-06-18T03:27:49.606Z,4.30
2018-06-18T03:30:19.170Z,3.52
2018-06-18T03:32:49.774Z,4.50
2018-06-18T03:35:18.941Z,3.95
2018-06-18T03:37:48.695Z,3.50
2018-06-18T03:40:17.989Z,3.92
2018-06-18T03:42:47.409Z,4.33
2018-06-18T03:45:21.500Z,4.30
2018-06-18T03:47:50.938Z,4.47
2018-06-18T03:50:20.396Z,3.70
2018-06-18T03:52:50.056Z,4.33
2018-06-18T03:55:32.672Z,4.58
2018-06-18T03:58:07.872Z,4.03
2018-06-18T04:03:01.698Z,4.45
2018-06-18T04:05:36.491Z,4.70
2018-06-18T04:08:13.757Z,3.95
2018-06-18T04:10:48.524Z,4.67
2018-06-18T04:13:18.043Z,4.42
2018-06-18T04:15:47.596Z,5.00
2018-06-18T04:18:17.003Z,4.97
2018-06-18T04:20:49.556Z,4.90
2018-06-18T04:23:19.046Z,5.03
2018-06-18T04:25:48.607Z,6.42
2018-06-18T04:28:18.147Z,5.87
2018-06-18T04:30:48.184Z,6.47
2018-06-18T04:33:22.408Z,6.37
2018-06-18T04:35:51.993Z,6.97
2018-06-18T04:38:21.599Z,5.97
2018-06-18T04:40:51.259Z,5.53
2018-06-18T04:43:26.028Z,7.47
2018-06-18T04:46:00.733Z,6.90
2018-06-18T04:48:35.307Z,5.65
2018-06-18T04:51:04.928Z,5.87
2018-06-18T04:53:34.485Z,6.10
2018-06-18T04:56:04.030Z,5.53
2018-06-18T04:58:33.502Z,5.72
2018-06-18T05:01:14.903Z,6.00
2018-06-18T05:03:44.336Z,5.78
2018-06-18T05:06:13.871Z,8.68
2018-06-18T05:10:54.710Z,6.28
2018-06-18T05:13:24.175Z,6.00
2018-06-18T05:15:54.894Z,6.70
2018-06-18T05:18:24.528Z,5.97
2018-06-18T05:20:54.259Z,6.67
2018-06-18T05:23:23.886Z,5.90
2018-06-18T05:25:58.567Z,6.83
2018-06-18T05:28:28.116Z,6.92
2018-06-18T05:30:58.303Z,6.53
2018-06-18T05:33:27.852Z,6.20
2018-06-18T05:35:57.259Z,6.62
2018-06-18T05:38:31.539Z,6.50
2018-06-18T05:41:01.302Z,6.30
2018-06-18T05:43:31.342Z,5.83
2018-06-18T05:46:01.055Z,7.42
2018-06-18T05:48:30.661Z,7.25
2018-06-18T05:51:00.235Z,7.30
2018-06-18T05:53:30.799Z,6.53
2018-06-18T05:56:00.245Z,6.80
2018-06-18T05:58:29.936Z,6.35
2018-06-18T06:00:59.472Z,6.58
2018-06-18T06:03:28.884Z,6.25
2018-06-18T06:05:58.416Z,5.33
2018-06-18T06:08:27.957Z,6.97
2018-06-18T06:11:00.632Z,6.62
2018-06-18T06:13:30.383Z,6.60
2018-06-18T06:16:01.900Z,6.22
2018-06-18T06:18:31.353Z,5.95
2018-06-18T06:21:10.468Z,5.50
2018-06-18T06:23:40.010Z,5.40
2018-06-18T06:26:09.713Z,6.35
2018-06-18T06:28:39.230Z,6.08
2018-06-18T06:31:08.677Z,5.65
2018-06-18T06:33:38.219Z,4.92
2018-06-18T06:36:09.784Z,5.22
2018-06-18T06:38:39.395Z,4.85
2018-06-18T06:41:10.324Z,5.25
2018-06-18T06:43:39.764Z,4.45
2018-06-18T06:46:09.315Z,4.83
2018-06-18T06:48:38.850Z,4.40
2018-06-18T06:51:08.429Z,4.55
2018-06-18T06:53:37.899Z,4.08
2018-06-18T06:56:07.416Z,4.20
2018-06-18T06:58:36.994Z,3.87
2018-06-18T07:01:06.585Z,4.12
2018-06-18T07:03:35.998Z,4.67
2018-06-18T07:06:05.435Z,3.80
2018-06-18T07:08:35.040Z,4.67
2018-06-18T07:11:04.636Z,4.12
2018-06-18T07:13:34.108Z,4.25
2018-06-18T07:16:03.578Z,4.28
2018-06-18T07:18:33.076Z,4.65
2018-06-18T07:21:02.725Z,4.72
2018-06-18T07:23:32.145Z,4.22
2018-06-18T07:26:01.713Z,5.10
2018-06-18T07:28:31.271Z,5.15
2018-06-18T07:31:00.684Z,3.83
2018-06-18T07:33:30.162Z,4.80
2018-06-18T07:35:59.688Z,4.60
2018-06-18T07:38:29.247Z,4.40
2018-06-18T07:40:58.741Z,4.20
2018-06-18T07:43:28.225Z,4.42
2018-06-18T07:45:57.815Z,4.97
2018-06-18T07:48:27.396Z,3.70
2018-06-18T07:50:56.827Z,3.80
2018-06-18T07:53:26.295Z,4.40
2018-06-18T07:55:55.828Z,3.90
2018-06-18T07:58:25.330Z,3.52
2018-06-18T08:00:54.804Z,3.92
2018-06-18T08:03:24.351Z,4.05
2018-06-18T08:05:53.788Z,3.30
2018-06-18T08:08:23.211Z,3.20
2018-06-18T08:10:52.677Z,3.22
2018-06-18T08:13:22.153Z,3.45
2018-06-18T08:15:51.627Z,3.83
2018-06-18T08:18:21.046Z,3.33
2018-06-18T08:20:50.703Z,3.52
2018-06-18T08:23:20.324Z,3.65
2018-06-18T08:25:49.837Z,4.22
2018-06-18T08:28:19.332Z,2.98
2018-06-18T08:30:48.840Z,3.87
2018-06-18T08:33:18.423Z,3.67
2018-06-18T08:35:47.840Z,3.60
2018-06-18T08:38:17.276Z,2.95
2018-06-18T08:40:46.889Z,2.95
2018-06-18T08:43:16.529Z,2.65
2018-06-18T08:45:46.097Z,3.47
2018-06-18T08:48:20.637Z,4.10
2018-06-18T08:50:55.340Z,3.95
2018-06-18T08:53:29.951Z,3.58
2018-06-18T08:56:04.532Z,3.90
2018-06-18T08:58:39.147Z,3.52
2018-06-18T09:01:10.332Z,4.17
2018-06-18T09:03:44.987Z,3.70
2018-06-18T09:06:14.432Z,4.10
2018-06-18T09:08:49.064Z,2.95
2018-06-18T09:11:19.952Z,3.30
2018-06-18T09:13:49.404Z,3.37
2018-06-18T09:16:18.837Z,3.10
2018-06-18T09:18:48.406Z,2.40
2018-06-18T09:21:17.972Z,3.58
2018-06-18T09:23:47.469Z,3.27
2018-06-18T09:26:16.890Z,3.55
2018-06-18T09:28:46.424Z,3.98
2018-06-18T09:31:15.936Z,2.95
2018-06-18T09:33:45.922Z,3.08
2018-06-18T09:36:15.375Z,3.05
2018-06-18T09:38:44.919Z,2.62
2018-06-18T09:41:14.511Z,2.65
2018-06-18T09:43:43.919Z,2.72
2018-06-18T09:46:13.508Z,3.20
2018-06-18T09:48:48.064Z,2.27
2018-06-18T09:51:22.913Z,2.60
2018-06-18T09:53:57.376Z,2.55
2018-06-18T09:56:32.228Z,3.22
2018-06-18T09:59:06.899Z,2.27
2018-06-18T10:01:36.447Z,2.58
2018-06-18T10:04:06.141Z,2.60
2018-06-18T10:06:38.485Z,3.30
2018-06-18T10:09:09.148Z,2.87
2018-06-18T10:11:38.729Z,2.62
2018-06-18T10:14:11.318Z,2.50
2018-06-18T10:16:40.788Z,2.58
2018-06-18T10:19:10.365Z,2.55
2018-06-18T10:21:39.951Z,2.22
2018-06-18T10:24:09.428Z,1.72
2018-06-18T10:26:38.961Z,2.40
2018-06-18T10:29:08.489Z,1.82
2018-06-18T10:31:38.099Z,2.00
2018-06-18T10:34:12.820Z,2.47
2018-06-18T10:37:46.002Z,1.62
2018-06-18T10:40:20.899Z,2.40
2018-06-18T10:42:55.563Z,2.40
2018-06-18T10:45:25.144Z,2.98
2018-06-18T10:47:54.699Z,1.90
2018-06-18T10:50:24.188Z,2.47
2018-06-18T10:52:53.766Z,2.35
2018-06-18T10:55:23.325Z,2.30
2018-06-18T10:57:52.818Z,2.00
2018-06-18T11:00:25.458Z,2.05
2018-06-18T11:02:55.675Z,2.50
2018-06-18T11:05:30.363Z,2.30
2018-06-18T11:07:59.889Z,2.10
2018-06-18T11:10:29.391Z,2.40
2018-06-18T11:12:58.976Z,2.95
2018-06-18T11:15:28.614Z,2.40
2018-06-18T11:18:03.393Z,2.08
2018-06-18T11:20:38.143Z,2.12
2018-06-18T11:23:12.974Z,2.40
2018-06-18T11:25:47.783Z,1.98
2018-06-18T11:28:17.388Z,2.50
2018-06-18T11:30:46.922Z,2.15
2018-06-18T11:33:16.545Z,1.87
2018-06-18T11:35:46.121Z,2.72
2018-06-18T11:38:15.582Z,2.30
2018-06-18T11:40:45.196Z,2.12
2018-06-18T11:43:14.700Z,2.27
2018-06-18T11:45:44.558Z,2.27
2018-06-18T11:48:19.561Z,2.58
2018-06-18T11:50:49.560Z,2.35
2018-06-18T11:53:19.896Z,2.08
2018-06-18T11:55:49.384Z,2.33
2018-06-18T11:58:24.301Z,2.37
2018-06-18T12:00:59.093Z,2.10
2018-06-18T12:03:33.824Z,2.47
2018-06-18T12:06:08.317Z,2.22
2018-06-18T12:08:42.905Z,2.17
2018-06-18T12:11:12.454Z,2.50
2018-06-18T12:13:42.002Z,2.62
2018-06-18T12:16:11.510Z,2.80
2018-06-18T12:18:40.975Z,3.65
2018-06-18T12:21:10.531Z,3.08
2018-06-18T12:23:40.057Z,2.92
2018-06-18T12:26:09.627Z,2.85
2018-06-18T12:28:39.155Z,3.15
2018-06-18T12:31:08.916Z,3.42
2018-06-18T12:33:38.774Z,2.70
2018-06-18T12:36:10.020Z,3.08
2018-06-18T12:38:39.563Z,2.75
2018-06-18T12:41:10.053Z,3.47
2018-06-18T12:43:42.685Z,3.45
2018-06-18T12:46:17.336Z,3.55
2018-06-18T12:48:51.894Z,3.83
2018-06-18T12:51:26.524Z,3.62
2018-06-18T12:54:01.148Z,3.40
2018-06-18T12:56:35.878Z,3.05
2018-06-18T12:59:05.458Z,3.35
2018-06-18T13:01:38.153Z,3.87
2018-06-18T13:04:09.187Z,3.42
2018-06-18T13:06:38.760Z,4.35
2018-06-18T13:09:09.734Z,3.75
2018-06-18T13:11:39.207Z,4.62
2018-06-18T13:14:08.789Z,5.33
2018-06-18T13:16:38.357Z,4.42
2018-06-18T13:19:07.910Z,5.17
2018-06-18T13:21:37.488Z,4.25
2018-06-18T13:24:07.019Z,5.05
2018-06-18T13:26:36.447Z,5.12
2018-06-18T13:29:06.006Z,5.87
2018-06-18T13:31:35.917Z,5.08
2018-06-18T13:34:05.435Z,5.20
2018-06-18T13:36:35.000Z,4.75
2018-06-18T13:39:11.962Z,4.80
2018-06-18T13:41:46.723Z,3.50
2018-06-18T13:44:21.458Z,3.87
2018-06-18T13:46:56.104Z,3.30
2018-06-18T13:49:29.693Z,3.67
2018-06-18T13:51:59.765Z,3.30
2018-06-18T13:54:29.288Z,2.90
2018-06-18T13:56:58.923Z,3.37
2018-06-18T13:59:29.284Z,2.98
2018-06-18T14:01:59.149Z,3.00
2018-06-18T14:04:28.718Z,2.98
2018-06-18T14:06:58.162Z,3.02
2018-06-18T14:09:27.721Z,2.75
2018-06-18T14:11:57.169Z,2.62
2018-06-18T14:14:27.774Z,2.90
2018-06-18T14:16:57.303Z,2.87
2018-06-18T14:19:32.116Z,2.70
2018-06-18T14:22:01.607Z,2.83
2018-06-18T14:24:31.236Z,2.90
2018-06-18T14:27:00.716Z,2.90
2018-06-18T14:29:35.190Z,3.12
2018-06-18T14:32:04.804Z,2.50
2018-06-18T14:34:39.407Z,3.12
2018-06-18T14:37:14.110Z,2.60
2018-06-18T14:39:48.794Z,2.52
2018-06-18T14:42:18.341Z,2.40
2018-06-18T14:44:47.639Z,2.40
2018-06-18T14:47:17.083Z,2.22
2018-06-18T14:49:46.663Z,2.83
2018-06-18T14:52:16.187Z,2.10
2018-06-18T14:54:45.560Z,2.90
2018-06-18T14:57:15.214Z,2.45
2018-06-18T14:59:53.080Z,2.85
2018-06-18T15:02:22.636Z,3.00
2018-06-18T15:04:52.118Z,2.83
2018-06-18T15:07:21.718Z,3.17
2018-06-18T15:09:51.166Z,2.45
2018-06-18T15:12:24.060Z,3.00
2018-06-18T15:14:58.915Z,2.35
2018-06-18T15:17:28.492Z,2.40
2018-06-18T15:19:57.935Z,1.87
2018-06-18T15:22:31.301Z,1.70
2018-06-18T15:25:05.304Z,2.08
2018-06-18T15:27:34.822Z,1.90
2018-06-18T15:30:04.419Z,1.95
2018-06-18T15:32:33.863Z,1.90
2018-06-18T15:35:03.311Z,2.50
2018-06-18T15:37:32.753Z,1.92
2018-06-18T15:40:02.325Z,2.08
2018-06-18T15:42:31.767Z,2.10
2018-06-18T15:45:01.210Z,2.25
2018-06-18T15:47:30.671Z,2.77
2018-06-18T15:50:00.159Z,2.15
2018-06-18T15:52:29.618Z,1.85
2018-06-18T15:54:59.137Z,1.80
2018-06-18T15:57:28.611Z,1.52
2018-06-18T15:59:58.067Z,1.95
2018-06-18T16:02:27.627Z,1.67
2018-06-18T16:04:56.989Z,1.85
2018-06-18T16:07:26.543Z,1.95
2018-06-18T16:09:56.047Z,1.85
2018-06-18T16:12:25.601Z,1.52
2018-06-18T16:14:55.115Z,1.42
2018-06-18T16:17:24.633Z,2.22
2018-06-18T16:19:54.072Z,1.62
2018-06-18T16:22:23.867Z,1.60
2018-06-18T16:24:53.491Z,1.80
2018-06-18T16:27:23.003Z,2.10
2018-06-18T16:29:52.436Z,2.02
2018-06-18T16:32:22.021Z,2.45
2018-06-18T16:34:51.582Z,1.87
2018-06-18T16:37:21.047Z,1.90
2018-06-18T16:39:50.444Z,2.45
2018-06-18T16:42:19.925Z,3.05
2018-06-18T16:44:49.526Z,2.83
2018-06-18T16:47:19.000Z,2.92
2018-06-18T16:49:48.763Z,2.92
2018-06-18T16:52:18.222Z,2.65
2018-06-18T16:54:47.816Z,2.80
2018-06-18T16:57:17.307Z,2.83
2018-06-18T16:59:46.796Z,3.58
2018-06-18T17:02:16.381Z,3.08
2018-06-18T17:04:46.022Z,3.08
2018-06-18T17:07:15.475Z,3.17
2018-06-18T17:09:44.975Z,3.33
2018-06-18T17:12:14.665Z,2.27
2018-06-18T17:14:44.104Z,3.10
2018-06-18T17:17:13.534Z,3.62
2018-06-18T17:19:43.090Z,3.02
2018-06-18T17:25:29.545Z,3.75
2018-06-18T17:27:59.038Z,3.37
2018-06-18T17:30:28.550Z,3.90
2018-06-18T17:32:58.082Z,3.10
2018-06-18T17:35:27.680Z,3.65
2018-06-18T17:37:57.426Z,2.83
2018-06-18T17:40:26.862Z,3.20
2018-06-18T17:42:56.377Z,3.20
2018-06-18T17:45:25.878Z,3.75
2018-06-18T17:47:55.427Z,3.17
2018-06-18T17:50:24.649Z,2.95
2018-06-18T17:52:54.106Z,3.70
2018-06-18T17:55:23.576Z,2.98
2018-06-18T17:57:53.015Z,3.10
2018-06-18T18:00:22.701Z,3.65
2018-06-18T18:02:52.706Z,3.42
2018-06-18T18:05:22.294Z,3.45
2018-06-18T18:07:51.725Z,3.40
2018-06-18T18:10:21.443Z,3.52
2018-06-18T18:12:51.108Z,3.62
2018-06-18T18:15:20.574Z,4.00
2018-06-18T18:17:50.059Z,4.62
2018-06-18T18:20:19.748Z,4.28
2018-06-18T18:22:49.407Z,4.00
2018-06-18T18:25:18.864Z,4.05
2018-06-18T18:27:48.408Z,4.72
2018-06-18T18:30:18.119Z,4.97
2018-06-18T18:32:47.995Z,3.80
2018-06-18T18:35:17.453Z,3.55
2018-06-18T18:37:46.931Z,3.58
2018-06-18T18:40:16.808Z,3.58
2018-06-18T18:42:46.338Z,4.30
2018-06-18T18:45:15.809Z,4.35
2018-06-18T18:47:45.255Z,3.12
2018-06-18T18:50:14.816Z,3.87
2018-06-18T18:52:45.472Z,3.83
2018-06-18T18:55:44.368Z,3.47
2018-06-18T18:58:31.729Z,3.70
2018-06-18T19:01:01.489Z,3.30
2018-06-18T19:03:31.192Z,3.90
2018-06-18T19:06:01.247Z,3.55
2018-06-18T19:08:32.581Z,4.60
2018-06-18T19:11:04.893Z,3.72
2018-06-18T19:13:37.408Z,3.80
2018-06-18T19:16:08.263Z,2.87
2018-06-18T19:18:39.230Z,2.15
2018-06-18T19:21:10.933Z,3.40
2018-06-18T19:23:40.496Z,3.40
2018-06-18T19:26:09.917Z,3.80
2018-06-18T19:28:39.572Z,2.72
2018-06-18T19:31:20.061Z,3.42
2018-06-18T19:34:27.346Z,3.58
2018-06-18T19:36:58.793Z,2.85
2018-06-18T19:39:32.827Z,2.40
2018-06-18T19:42:02.460Z,2.35
2018-06-18T19:44:32.157Z,2.83
2018-06-18T19:47:17.281Z,3.30
2018-06-18T19:49:47.194Z,2.77
2018-06-18T19:52:17.205Z,2.47
2018-06-18T19:54:52.684Z,3.10
2018-06-18T19:57:22.562Z,3.00
2018-06-18T19:59:52.111Z,2.47
2018-06-18T20:02:22.627Z,2.58
2018-06-18T20:04:53.536Z,2.85
2018-06-18T20:07:25.679Z,2.55
2018-06-18T20:09:57.314Z,2.42
2018-06-18T20:12:28.346Z,2.62
2018-06-18T20:14:57.868Z,2.47
2018-06-18T20:17:27.419Z,2.75
2018-06-18T20:19:57.047Z,2.67
2018-06-18T20:22:26.934Z,2.50
2018-06-18T20:24:56.545Z,3.25
2018-06-18T20:27:26.056Z,3.30
2018-06-18T20:29:55.580Z,2.40
2018-06-18T20:32:25.070Z,2.40
2018-06-18T20:34:54.653Z,2.20
2018-06-18T20:37:24.109Z,2.50
2018-06-18T20:39:54.064Z,2.45
2018-06-18T20:42:23.661Z,2.87
2018-06-18T20:44:53.105Z,2.65
2018-06-18T20:47:22.533Z,3.10
2018-06-18T20:49:52.129Z,2.75
2018-06-18T20:52:21.723Z,2.90
2018-06-18T20:54:51.194Z,3.77
2018-06-18T20:57:20.699Z,3.40
2018-06-18T20:59:50.330Z,3.00
2018-06-18T21:02:19.899Z,2.77
2018-06-18T21:04:49.365Z,3.05
2018-06-18T21:07:18.817Z,2.90
2018-06-18T21:09:48.520Z,3.45
2018-06-18T21:12:17.991Z,3.12
2018-06-18T21:14:47.445Z,3.33
2018-06-18T21:17:17.079Z,3.00
2018-06-18T21:19:46.948Z,2.72
2018-06-18T21:22:16.444Z,3.65
2018-06-18T21:24:57.741Z,3.08
2018-06-18T21:27:27.277Z,3.05
2018-06-18T21:29:56.792Z,3.30
2018-06-18T21:32:26.347Z,3.10
2018-06-18T21:34:55.967Z,3.35
2018-06-18T21:37:25.419Z,3.52
2018-06-18T21:39:54.871Z,3.37
2018-06-18T21:42:24.503Z,3.58
2018-06-18T21:45:06.306Z,3.20
2018-06-18T21:47:35.842Z,3.62
2018-06-18T21:50:05.622Z,3.83
2018-06-18T21:52:35.126Z,3.42
2018-06-18T21:55:04.632Z,3.15
2018-06-18T21:57:34.159Z,3.27
2018-06-18T22:00:04.044Z,3.67
2018-06-18T22:02:33.512Z,3.83
2018-06-18T22:05:02.966Z,3.60
2018-06-18T22:07:32.567Z,3.77
2018-06-18T22:10:02.170Z,3.65
2018-06-18T22:12:31.652Z,3.67
2018-06-18T22:15:01.099Z,3.72
2018-06-18T22:17:30.682Z,3.58
2018-06-18T22:20:00.735Z,3.85
2018-06-18T22:22:30.263Z,4.15
2018-06-18T22:24:59.462Z,3.52
2018-06-18T22:27:29.312Z,3.83
2018-06-18T22:29:58.980Z,3.70
2018-06-18T22:32:28.453Z,3.87
2018-06-18T22:34:57.928Z,2.85
2018-06-18T22:37:27.507Z,3.02
2018-06-18T22:39:56.966Z,4.05
2018-06-18T22:42:26.465Z,3.67
2018-06-18T22:44:56.008Z,3.52
2018-06-18T22:47:25.524Z,3.33
2018-06-18T22:49:54.975Z,3.22
2018-06-18T22:52:24.437Z,3.37
2018-06-18T22:54:54.141Z,3.33
2018-06-18T22:57:23.617Z,3.67
2018-06-18T22:59:53.090Z,3.42
2018-06-18T23:02:26.562Z,3.40
2018-06-18T23:04:56.075Z,3.50
2018-06-18T23:07:25.583Z,3.58
2018-06-18T23:09:55.250Z,3.55
2018-06-18T23:16:10.510Z,3.60
2018-06-18T23:18:39.960Z,3.62
2018-06-18T23:21:09.613Z,3.70
2018-06-18T23:23:39.347Z,3.33
2018-06-18T23:26:08.795Z,3.22
2018-06-18T23:28:48.306Z,3.83
2018-06-18T23:31:17.719Z,2.87
2018-06-18T23:33:47.363Z,3.58
2018-06-18T23:36:16.867Z,3.47
2018-06-18T23:38:46.348Z,3.55
2018-06-18T23:41:15.843Z,3.72
2018-06-18T23:43:45.366Z,4.20
2018-06-18T23:46:14.878Z,4.08
2018-06-18T23:48:44.447Z,3.75
2018-06-18T23:51:14.266Z,3.50
2018-06-18T23:53:43.967Z,3.92
2018-06-18T23:56:13.593Z,3.77
2018-06-18T23:58:43.050Z,4.03
